Currywurst Fly-In Hodenhagen 2022

Forum - Termine & Events
  • Liebe Currywurst-Liebhaber,

    morgen steht unser drittes Currywurst Fly-In für dieses Jahr bei uns auf dem Kalender.

    Die Currywürste, wie auch die Getränke stehen für Euch bereit.

    Egal, ob die Anreise mit dem Flugzeug, dem Auto, den Öffis oder auf sonstigen Wegen (gegebenenfalls auch aufgrund des Wetters) erfolgt - wir freuen uns über jeden einzelnen, der uns morgen wieder auf eine leckere Wurst in Hodenhagen am Flugplatz besuchen kommt.

    Bis morgen! 🙂

    TAF: EDDV 071100Z 0712/0812 30015G25KT 9999 FEW015 BKN025 PROB30 TEMPO 0712/0715 4000 SHRA BKN010TCU TEMPO 0713/0716 31020G30KT BECMG 0718/0721 29010KT

    Es kann sich selbstverständlich weiterhin angemeldet werden:

    https://www.flugplatz-hodenhagen.de/currywurst-fly-in/

Jetzt anmelden

Passwort vergessen

Umfrage Archiv

Sendet Ihr ADS-B und/oder FLARM?

Ja
83.8 %
Nein
16.2 %
Stimmen: 222 | Diskussion
Anzeige: Roland Aircraft
Statistik Alle Mitglieder

Aktuell sind 49 Besucher online, davon 2 Mitglieder und 47 Gäste.


Mitglieder online:
mikemike  Maraio 

Anzeige: ULPower Aero Engines Anzeige: Pocket FMS